sensor_id;sensor_type;location;lat;lon;timestamp;P1;durP1;ratioP1;P2;durP2;ratioP2
64875;SDS011;51369;49.862;9.908;2023-02-07T00:00:39;10.63;;;6.47;;
64875;SDS011;51369;49.862;9.908;2023-02-07T00:03:04;11.38;;;6.85;;
64875;SDS011;51369;49.862;9.908;2023-02-07T00:05:30;10.77;;;6.68;;
64875;SDS011;51369;49.862;9.908;2023-02-07T00:07:55;9.20;;;6.13;;
64875;SDS011;51369;49.862;9.908;2023-02-07T00:10:21;10.93;;;6.70;;
64875;SDS011;51369;49.862;9.908;2023-02-07T00:12:46;12.18;;;7.57;;
64875;SDS011;51369;49.862;9.908;2023-02-07T00:15:12;10.43;;;6.80;;
64875;SDS011;51369;49.862;9.908;2023-02-07T00:17:37;11.70;;;7.35;;
64875;SDS011;51369;49.862;9.908;2023-02-07T00:20:03;10.80;;;6.85;;
64875;SDS011;51369;49.862;9.908;2023-02-07T00:22:30;14.18;;;7.32;;
64875;SDS011;51369;49.862;9.908;2023-02-07T00:24:55;11.68;;;6.75;;
64875;SDS011;51369;49.862;9.908;2023-02-07T00:27:20;12.70;;;7.68;;
64875;SDS011;51369;49.862;9.908;2023-02-07T00:29:46;14.98;;;7.13;;
64875;SDS011;51369;49.862;9.908;2023-02-07T00:32:12;10.35;;;6.57;;
64875;SDS011;51369;49.862;9.908;2023-02-07T00:34:37;15.13;;;7.50;;
64875;SDS011;51369;49.862;9.908;2023-02-07T00:37:03;12.10;;;8.38;;
64875;SDS011;51369;49.862;9.908;2023-02-07T00:39:30;13.95;;;7.75;;
64875;SDS011;51369;49.862;9.908;2023-02-07T00:41:55;12.65;;;7.72;;
64875;SDS011;51369;49.862;9.908;2023-02-07T00:44:21;15.13;;;8.05;;
64875;SDS011;51369;49.862;9.908;2023-02-07T00:46:47;13.52;;;7.40;;
64875;SDS011;51369;49.862;9.908;2023-02-07T00:49:12;14.73;;;8.23;;
64875;SDS011;51369;49.862;9.908;2023-02-07T00:51:38;14.50;;;7.82;;
64875;SDS011;51369;49.862;9.908;2023-02-07T00:54:04;14.90;;;7.22;;
64875;SDS011;51369;49.862;9.908;2023-02-07T00:56:29;14.80;;;8.05;;
64875;SDS011;51369;49.862;9.908;2023-02-07T00:58:56;12.38;;;7.45;;
64875;SDS011;51369;49.862;9.908;2023-02-07T01:01:22;14.73;;;7.50;;
64875;SDS011;51369;49.862;9.908;2023-02-07T01:03:48;15.63;;;8.60;;
64875;SDS011;51369;49.862;9.908;2023-02-07T01:06:14;16.88;;;8.38;;
64875;SDS011;51369;49.862;9.908;2023-02-07T01:08:40;13.32;;;8.07;;
64875;SDS011;51369;49.862;9.908;2023-02-07T01:11:10;16.33;;;8.45;;
64875;SDS011;51369;49.862;9.908;2023-02-07T01:13:38;16.83;;;9.25;;
64875;SDS011;51369;49.862;9.908;2023-02-07T01:16:07;14.00;;;8.15;;
64875;SDS011;51369;49.862;9.908;2023-02-07T01:18:42;17.02;;;8.05;;
64875;SDS011;51369;49.862;9.908;2023-02-07T01:21:17;13.52;;;7.97;;
64875;SDS011;51369;49.862;9.908;2023-02-07T01:23:44;20.02;;;8.85;;
64875;SDS011;51369;49.862;9.908;2023-02-07T01:26:09;18.20;;;9.63;;
64875;SDS011;51369;49.862;9.908;2023-02-07T01:28:35;17.35;;;9.15;;
64875;SDS011;51369;49.862;9.908;2023-02-07T01:31:05;16.13;;;9.13;;
64875;SDS011;51369;49.862;9.908;2023-02-07T01:33:32;18.65;;;9.20;;
64875;SDS011;51369;49.862;9.908;2023-02-07T01:35:58;18.35;;;8.40;;
64875;SDS011;51369;49.862;9.908;2023-02-07T01:38:23;16.33;;;8.45;;
64875;SDS011;51369;49.862;9.908;2023-02-07T01:40:48;23.23;;;9.43;;
64875;SDS011;51369;49.862;9.908;2023-02-07T01:43:17;22.17;;;9.60;;
64875;SDS011;51369;49.862;9.908;2023-02-07T01:45:46;18.05;;;9.45;;
64875;SDS011;51369;49.862;9.908;2023-02-07T01:48:18;17.67;;;9.27;;
64875;SDS011;51369;49.862;9.908;2023-02-07T01:50:47;17.08;;;9.38;;
64875;SDS011;51369;49.862;9.908;2023-02-07T01:53:15;19.40;;;10.30;;
64875;SDS011;51369;49.862;9.908;2023-02-07T01:55:43;17.52;;;9.38;;
64875;SDS011;51369;49.862;9.908;2023-02-07T01:58:11;19.55;;;9.27;;
64875;SDS011;51369;49.862;9.908;2023-02-07T02:00:37;16.73;;;9.95;;
64875;SDS011;51369;49.862;9.908;2023-02-07T02:03:02;15.30;;;8.80;;
64875;SDS011;51369;49.862;9.908;2023-02-07T02:05:29;19.50;;;10.40;;
64875;SDS011;51369;49.862;9.908;2023-02-07T02:07:56;22.45;;;9.45;;
64875;SDS011;51369;49.862;9.908;2023-02-07T02:10:23;19.10;;;10.13;;
64875;SDS011;51369;49.862;9.908;2023-02-07T02:18:32;19.17;;;9.65;;
64875;SDS011;51369;49.862;9.908;2023-02-07T02:21:13;20.55;;;9.38;;
64875;SDS011;51369;49.862;9.908;2023-02-07T02:30:45;21.85;;;9.65;;
64875;SDS011;51369;49.862;9.908;2023-02-07T02:33:54;19.67;;;9.82;;
64875;SDS011;51369;49.862;9.908;2023-02-07T02:39:12;22.17;;;9.45;;
64875;SDS011;51369;49.862;9.908;2023-02-07T02:41:53;21.13;;;10.68;;
64875;SDS011;51369;49.862;9.908;2023-02-07T02:44:29;18.15;;;9.35;;
64875;SDS011;51369;49.862;9.908;2023-02-07T02:47:00;18.05;;;10.23;;
64875;SDS011;51369;49.862;9.908;2023-02-07T02:49:27;21.27;;;9.90;;
64875;SDS011;51369;49.862;9.908;2023-02-07T02:51:55;23.55;;;11.48;;
64875;SDS011;51369;49.862;9.908;2023-02-07T02:54:34;18.88;;;10.70;;
64875;SDS011;51369;49.862;9.908;2023-02-07T02:57:16;18.73;;;10.10;;
64875;SDS011;51369;49.862;9.908;2023-02-07T02:59:59;21.83;;;11.18;;
64875;SDS011;51369;49.862;9.908;2023-02-07T03:02:51;22.15;;;11.18;;
64875;SDS011;51369;49.862;9.908;2023-02-07T03:05:52;24.67;;;10.90;;
64875;SDS011;51369;49.862;9.908;2023-02-07T03:08:46;25.10;;;11.15;;
64875;SDS011;51369;49.862;9.908;2023-02-07T03:11:37;20.00;;;11.07;;
64875;SDS011;51369;49.862;9.908;2023-02-07T03:14:29;23.23;;;10.73;;
64875;SDS011;51369;49.862;9.908;2023-02-07T03:19:29;25.33;;;11.95;;
64875;SDS011;51369;49.862;9.908;2023-02-07T03:21:58;20.05;;;11.35;;
64875;SDS011;51369;49.862;9.908;2023-02-07T03:24:28;22.48;;;11.48;;
64875;SDS011;51369;49.862;9.908;2023-02-07T03:26:57;20.23;;;11.10;;
64875;SDS011;51369;49.862;9.908;2023-02-07T03:29:27;19.58;;;11.40;;
64875;SDS011;51369;49.862;9.908;2023-02-07T03:31:54;23.10;;;11.57;;
64875;SDS011;51369;49.862;9.908;2023-02-07T03:34:26;23.15;;;12.40;;
64875;SDS011;51369;49.862;9.908;2023-02-07T03:36:59;24.90;;;11.68;;
64875;SDS011;51369;49.862;9.908;2023-02-07T03:39:31;24.00;;;11.32;;
64875;SDS011;51369;49.862;9.908;2023-02-07T03:42:01;20.35;;;10.95;;
64875;SDS011;51369;49.862;9.908;2023-02-07T03:44:32;24.33;;;12.40;;
64875;SDS011;51369;49.862;9.908;2023-02-07T03:46:59;19.98;;;10.73;;
64875;SDS011;51369;49.862;9.908;2023-02-07T03:49:25;22.95;;;11.48;;
64875;SDS011;51369;49.862;9.908;2023-02-07T03:51:52;21.95;;;11.77;;
64875;SDS011;51369;49.862;9.908;2023-02-07T03:54:18;23.98;;;11.73;;
64875;SDS011;51369;49.862;9.908;2023-02-07T03:56:43;21.40;;;12.00;;
64875;SDS011;51369;49.862;9.908;2023-02-07T03:59:08;21.83;;;11.85;;
64875;SDS011;51369;49.862;9.908;2023-02-07T04:01:34;23.60;;;12.38;;
64875;SDS011;51369;49.862;9.908;2023-02-07T04:04:05;23.45;;;11.45;;
64875;SDS011;51369;49.862;9.908;2023-02-07T04:06:31;22.77;;;11.30;;
64875;SDS011;51369;49.862;9.908;2023-02-07T04:08:56;25.30;;;11.48;;
64875;SDS011;51369;49.862;9.908;2023-02-07T04:11:22;20.63;;;12.02;;
64875;SDS011;51369;49.862;9.908;2023-02-07T04:13:47;24.50;;;12.27;;
64875;SDS011;51369;49.862;9.908;2023-02-07T04:16:12;22.52;;;11.80;;
64875;SDS011;51369;49.862;9.908;2023-02-07T04:18:38;23.80;;;12.10;;
64875;SDS011;51369;49.862;9.908;2023-02-07T04:21:04;24.25;;;11.95;;
64875;SDS011;51369;49.862;9.908;2023-02-07T04:23:31;22.35;;;12.07;;
64875;SDS011;51369;49.862;9.908;2023-02-07T04:25:57;24.85;;;12.32;;
64875;SDS011;51369;49.862;9.908;2023-02-07T04:28:23;21.88;;;11.60;;
64875;SDS011;51369;49.862;9.908;2023-02-07T04:30:48;21.30;;;11.68;;
64875;SDS011;51369;49.862;9.908;2023-02-07T04:33:13;28.17;;;13.38;;
64875;SDS011;51369;49.862;9.908;2023-02-07T04:35:39;24.30;;;12.75;;
64875;SDS011;51369;49.862;9.908;2023-02-07T04:38:04;25.67;;;13.02;;
64875;SDS011;51369;49.862;9.908;2023-02-07T04:40:30;25.27;;;13.23;;
64875;SDS011;51369;49.862;9.908;2023-02-07T04:42:55;24.42;;;13.00;;
64875;SDS011;51369;49.862;9.908;2023-02-07T04:45:21;25.15;;;12.82;;
64875;SDS011;51369;49.862;9.908;2023-02-07T04:47:46;25.83;;;12.32;;
64875;SDS011;51369;49.862;9.908;2023-02-07T04:50:11;25.50;;;12.90;;
64875;SDS011;51369;49.862;9.908;2023-02-07T04:52:37;23.85;;;12.23;;
64875;SDS011;51369;49.862;9.908;2023-02-07T04:55:04;27.83;;;12.55;;
64875;SDS011;51369;49.862;9.908;2023-02-07T04:57:30;22.27;;;12.93;;
64875;SDS011;51369;49.862;9.908;2023-02-07T04:59:55;27.58;;;13.18;;
64875;SDS011;51369;49.862;9.908;2023-02-07T05:02:21;25.55;;;13.27;;
64875;SDS011;51369;49.862;9.908;2023-02-07T05:04:46;28.13;;;14.30;;
64875;SDS011;51369;49.862;9.908;2023-02-07T05:07:11;29.35;;;14.43;;
64875;SDS011;51369;49.862;9.908;2023-02-07T05:09:37;27.42;;;12.30;;
64875;SDS011;51369;49.862;9.908;2023-02-07T05:12:02;22.92;;;12.93;;
64875;SDS011;51369;49.862;9.908;2023-02-07T05:14:27;28.90;;;13.77;;
64875;SDS011;51369;49.862;9.908;2023-02-07T05:16:53;25.75;;;13.60;;
64875;SDS011;51369;49.862;9.908;2023-02-07T05:19:18;28.65;;;13.85;;
64875;SDS011;51369;49.862;9.908;2023-02-07T05:21:44;28.15;;;13.50;;
64875;SDS011;51369;49.862;9.908;2023-02-07T05:24:09;29.13;;;14.35;;
64875;SDS011;51369;49.862;9.908;2023-02-07T05:26:34;27.73;;;13.18;;
64875;SDS011;51369;49.862;9.908;2023-02-07T05:29:00;26.10;;;12.90;;
64875;SDS011;51369;49.862;9.908;2023-02-07T05:31:25;24.20;;;13.70;;
64875;SDS011;51369;49.862;9.908;2023-02-07T05:34:10;28.48;;;13.88;;
64875;SDS011;51369;49.862;9.908;2023-02-07T05:36:36;25.63;;;13.80;;
64875;SDS011;51369;49.862;9.908;2023-02-07T05:39:01;27.70;;;14.57;;
64875;SDS011;51369;49.862;9.908;2023-02-07T05:41:27;28.10;;;14.23;;
64875;SDS011;51369;49.862;9.908;2023-02-07T05:43:52;26.10;;;14.20;;
64875;SDS011;51369;49.862;9.908;2023-02-07T05:46:17;27.02;;;13.88;;
64875;SDS011;51369;49.862;9.908;2023-02-07T05:48:43;27.33;;;12.80;;
64875;SDS011;51369;49.862;9.908;2023-02-07T05:51:08;28.92;;;13.88;;
64875;SDS011;51369;49.862;9.908;2023-02-07T05:53:33;26.02;;;13.65;;
64875;SDS011;51369;49.862;9.908;2023-02-07T05:55:59;30.95;;;13.77;;
64875;SDS011;51369;49.862;9.908;2023-02-07T05:58:24;32.67;;;13.65;;
64875;SDS011;51369;49.862;9.908;2023-02-07T06:00:50;23.33;;;12.88;;
64875;SDS011;51369;49.862;9.908;2023-02-07T06:03:15;28.80;;;13.55;;
64875;SDS011;51369;49.862;9.908;2023-02-07T06:05:40;32.47;;;15.00;;
64875;SDS011;51369;49.862;9.908;2023-02-07T06:08:06;36.88;;;15.88;;
64875;SDS011;51369;49.862;9.908;2023-02-07T06:10:31;30.25;;;14.00;;
64875;SDS011;51369;49.862;9.908;2023-02-07T06:12:57;33.47;;;15.20;;
64875;SDS011;51369;49.862;9.908;2023-02-07T06:15:22;32.10;;;14.88;;
64875;SDS011;51369;49.862;9.908;2023-02-07T06:17:48;31.63;;;14.50;;
64875;SDS011;51369;49.862;9.908;2023-02-07T06:20:13;26.95;;;13.38;;
64875;SDS011;51369;49.862;9.908;2023-02-07T06:22:38;30.13;;;14.73;;
64875;SDS011;51369;49.862;9.908;2023-02-07T06:25:04;26.33;;;13.85;;
64875;SDS011;51369;49.862;9.908;2023-02-07T06:27:29;28.13;;;13.95;;
64875;SDS011;51369;49.862;9.908;2023-02-07T06:29:55;32.15;;;15.10;;
64875;SDS011;51369;49.862;9.908;2023-02-07T06:32:20;30.50;;;15.40;;
64875;SDS011;51369;49.862;9.908;2023-02-07T06:34:46;27.33;;;14.35;;
64875;SDS011;51369;49.862;9.908;2023-02-07T06:37:11;35.15;;;15.32;;
64875;SDS011;51369;49.862;9.908;2023-02-07T06:39:36;31.60;;;13.82;;
64875;SDS011;51369;49.862;9.908;2023-02-07T06:42:02;35.17;;;15.25;;
64875;SDS011;51369;49.862;9.908;2023-02-07T06:44:28;31.70;;;15.25;;
64875;SDS011;51369;49.862;9.908;2023-02-07T06:46:54;30.00;;;14.48;;
64875;SDS011;51369;49.862;9.908;2023-02-07T06:49:19;35.35;;;14.32;;
64875;SDS011;51369;49.862;9.908;2023-02-07T06:51:44;32.92;;;16.10;;
64875;SDS011;51369;49.862;9.908;2023-02-07T06:54:10;33.83;;;16.23;;
64875;SDS011;51369;49.862;9.908;2023-02-07T06:56:35;32.13;;;15.57;;
64875;SDS011;51369;49.862;9.908;2023-02-07T06:59:01;33.50;;;15.20;;
64875;SDS011;51369;49.862;9.908;2023-02-07T07:01:27;34.72;;;16.58;;
64875;SDS011;51369;49.862;9.908;2023-02-07T07:03:52;31.83;;;15.15;;
64875;SDS011;51369;49.862;9.908;2023-02-07T07:06:17;35.20;;;16.00;;
64875;SDS011;51369;49.862;9.908;2023-02-07T07:08:43;32.90;;;16.55;;
64875;SDS011;51369;49.862;9.908;2023-02-07T07:11:08;32.13;;;15.80;;
64875;SDS011;51369;49.862;9.908;2023-02-07T07:13:33;31.40;;;16.48;;
64875;SDS011;51369;49.862;9.908;2023-02-07T07:15:59;36.10;;;17.65;;
64875;SDS011;51369;49.862;9.908;2023-02-07T07:18:24;40.00;;;19.10;;
64875;SDS011;51369;49.862;9.908;2023-02-07T07:20:53;31.15;;;16.20;;
64875;SDS011;51369;49.862;9.908;2023-02-07T07:23:19;35.58;;;16.95;;
64875;SDS011;51369;49.862;9.908;2023-02-07T07:25:44;35.72;;;16.38;;
64875;SDS011;51369;49.862;9.908;2023-02-07T07:28:10;32.45;;;15.98;;
64875;SDS011;51369;49.862;9.908;2023-02-07T07:30:35;36.83;;;17.20;;
64875;SDS011;51369;49.862;9.908;2023-02-07T07:33:01;38.28;;;16.38;;
64875;SDS011;51369;49.862;9.908;2023-02-07T07:35:26;31.52;;;15.55;;
64875;SDS011;51369;49.862;9.908;2023-02-07T07:37:52;36.40;;;16.63;;
64875;SDS011;51369;49.862;9.908;2023-02-07T07:40:18;34.58;;;16.70;;
64875;SDS011;51369;49.862;9.908;2023-02-07T07:42:43;33.63;;;15.98;;
64875;SDS011;51369;49.862;9.908;2023-02-07T07:45:19;30.75;;;14.52;;
64875;SDS011;51369;49.862;9.908;2023-02-07T07:47:45;30.42;;;14.82;;
64875;SDS011;51369;49.862;9.908;2023-02-07T07:50:10;32.35;;;16.15;;
64875;SDS011;51369;49.862;9.908;2023-02-07T07:52:36;37.75;;;16.67;;
64875;SDS011;51369;49.862;9.908;2023-02-07T07:55:01;36.35;;;16.33;;
64875;SDS011;51369;49.862;9.908;2023-02-07T07:57:27;42.42;;;17.65;;
64875;SDS011;51369;49.862;9.908;2023-02-07T07:59:55;33.13;;;16.48;;
64875;SDS011;51369;49.862;9.908;2023-02-07T08:02:20;39.05;;;16.75;;
64875;SDS011;51369;49.862;9.908;2023-02-07T08:04:46;34.85;;;14.85;;
64875;SDS011;51369;49.862;9.908;2023-02-07T08:07:11;34.10;;;15.63;;
64875;SDS011;51369;49.862;9.908;2023-02-07T08:09:37;32.17;;;14.85;;
64875;SDS011;51369;49.862;9.908;2023-02-07T08:12:03;37.92;;;15.98;;
64875;SDS011;51369;49.862;9.908;2023-02-07T08:14:28;28.08;;;15.15;;
64875;SDS011;51369;49.862;9.908;2023-02-07T08:16:54;30.45;;;15.60;;
64875;SDS011;51369;49.862;9.908;2023-02-07T08:19:19;36.38;;;14.77;;
64875;SDS011;51369;49.862;9.908;2023-02-07T08:21:44;32.45;;;16.48;;
64875;SDS011;51369;49.862;9.908;2023-02-07T08:24:10;31.92;;;15.27;;
64875;SDS011;51369;49.862;9.908;2023-02-07T08:26:35;36.25;;;17.73;;
64875;SDS011;51369;49.862;9.908;2023-02-07T08:29:01;34.03;;;15.60;;
64875;SDS011;51369;49.862;9.908;2023-02-07T08:31:26;31.25;;;14.63;;
64875;SDS011;51369;49.862;9.908;2023-02-07T08:33:52;29.17;;;14.57;;
64875;SDS011;51369;49.862;9.908;2023-02-07T08:36:17;35.17;;;13.63;;
64875;SDS011;51369;49.862;9.908;2023-02-07T08:38:43;30.67;;;15.00;;
64875;SDS011;51369;49.862;9.908;2023-02-07T08:41:08;31.33;;;15.02;;
64875;SDS011;51369;49.862;9.908;2023-02-07T08:43:34;45.28;;;16.40;;
64875;SDS011;51369;49.862;9.908;2023-02-07T08:45:59;32.08;;;14.57;;
64875;SDS011;51369;49.862;9.908;2023-02-07T08:48:25;33.38;;;15.18;;
64875;SDS011;51369;49.862;9.908;2023-02-07T08:50:51;29.85;;;13.80;;
64875;SDS011;51369;49.862;9.908;2023-02-07T08:53:16;30.83;;;14.80;;
64875;SDS011;51369;49.862;9.908;2023-02-07T08:55:42;29.25;;;14.00;;
64875;SDS011;51369;49.862;9.908;2023-02-07T08:58:08;27.90;;;13.57;;
64875;SDS011;51369;49.862;9.908;2023-02-07T09:00:34;33.17;;;13.85;;
64875;SDS011;51369;49.862;9.908;2023-02-07T09:03:03;42.50;;;14.30;;
64875;SDS011;51369;49.862;9.908;2023-02-07T09:05:29;25.58;;;12.95;;
64875;SDS011;51369;49.862;9.908;2023-02-07T09:07:58;42.92;;;15.30;;
64875;SDS011;51369;49.862;9.908;2023-02-07T09:10:24;28.67;;;14.05;;
64875;SDS011;51369;49.862;9.908;2023-02-07T09:12:50;28.52;;;13.93;;
64875;SDS011;51369;49.862;9.908;2023-02-07T09:15:15;31.25;;;13.65;;
64875;SDS011;51369;49.862;9.908;2023-02-07T09:17:40;29.15;;;13.43;;
64875;SDS011;51369;49.862;9.908;2023-02-07T09:20:06;28.40;;;13.85;;
64875;SDS011;51369;49.862;9.908;2023-02-07T09:22:32;32.33;;;14.88;;
64875;SDS011;51369;49.862;9.908;2023-02-07T09:25:17;23.95;;;13.00;;
64875;SDS011;51369;49.862;9.908;2023-02-07T09:27:43;27.70;;;13.05;;
64875;SDS011;51369;49.862;9.908;2023-02-07T09:30:08;27.73;;;14.60;;
64875;SDS011;51369;49.862;9.908;2023-02-07T09:32:34;28.80;;;13.15;;
64875;SDS011;51369;49.862;9.908;2023-02-07T09:35:00;26.20;;;13.05;;
64875;SDS011;51369;49.862;9.908;2023-02-07T09:37:25;27.88;;;13.25;;
64875;SDS011;51369;49.862;9.908;2023-02-07T09:39:51;25.13;;;13.70;;
64875;SDS011;51369;49.862;9.908;2023-02-07T09:42:27;34.22;;;13.02;;
64875;SDS011;51369;49.862;9.908;2023-02-07T09:45:00;28.83;;;12.90;;
64875;SDS011;51369;49.862;9.908;2023-02-07T09:47:31;27.75;;;12.43;;
64875;SDS011;51369;49.862;9.908;2023-02-07T09:50:03;24.35;;;12.50;;
64875;SDS011;51369;49.862;9.908;2023-02-07T09:52:36;28.80;;;11.93;;
64875;SDS011;51369;49.862;9.908;2023-02-07T09:55:17;22.45;;;10.95;;
64875;SDS011;51369;49.862;9.908;2023-02-07T09:57:48;26.92;;;11.95;;
64875;SDS011;51369;49.862;9.908;2023-02-07T10:00:20;23.65;;;11.45;;
64875;SDS011;51369;49.862;9.908;2023-02-07T10:02:53;24.33;;;11.48;;
64875;SDS011;51369;49.862;9.908;2023-02-07T10:06:05;22.38;;;11.88;;
64875;SDS011;51369;49.862;9.908;2023-02-07T10:08:24;24.02;;;11.55;;
64875;SDS011;51369;49.862;9.908;2023-02-07T10:14:00;25.02;;;10.98;;
64875;SDS011;51369;49.862;9.908;2023-02-07T10:19:16;20.27;;;10.02;;
64875;SDS011;51369;49.862;9.908;2023-02-07T10:21:53;18.35;;;9.95;;
64875;SDS011;51369;49.862;9.908;2023-02-07T10:24:41;20.95;;;11.10;;
64875;SDS011;51369;49.862;9.908;2023-02-07T10:27:30;23.40;;;10.73;;
64875;SDS011;51369;49.862;9.908;2023-02-07T10:32:45;24.77;;;10.68;;
64875;SDS011;51369;49.862;9.908;2023-02-07T10:37:45;22.10;;;10.07;;
64875;SDS011;51369;49.862;9.908;2023-02-07T10:40:18;23.88;;;10.63;;
64875;SDS011;51369;49.862;9.908;2023-02-07T10:43:31;20.30;;;10.32;;
64875;SDS011;51369;49.862;9.908;2023-02-07T10:45:46;24.38;;;10.40;;
64875;SDS011;51369;49.862;9.908;2023-02-07T10:48:13;24.10;;;10.50;;
64875;SDS011;51369;49.862;9.908;2023-02-07T10:50:39;21.48;;;10.50;;
64875;SDS011;51369;49.862;9.908;2023-02-07T10:53:04;19.55;;;10.52;;
64875;SDS011;51369;49.862;9.908;2023-02-07T10:55:48;24.98;;;10.50;;
64875;SDS011;51369;49.862;9.908;2023-02-07T10:58:21;18.25;;;9.93;;
64875;SDS011;51369;49.862;9.908;2023-02-07T11:00:49;21.08;;;10.40;;
64875;SDS011;51369;49.862;9.908;2023-02-07T11:03:19;21.70;;;11.23;;
64875;SDS011;51369;49.862;9.908;2023-02-07T11:05:50;15.40;;;9.68;;
64875;SDS011;51369;49.862;9.908;2023-02-07T11:08:21;16.67;;;9.40;;
64875;SDS011;51369;49.862;9.908;2023-02-07T11:10:50;21.63;;;10.02;;
64875;SDS011;51369;49.862;9.908;2023-02-07T11:13:19;22.73;;;9.95;;
64875;SDS011;51369;49.862;9.908;2023-02-07T11:15:48;21.40;;;10.20;;
64875;SDS011;51369;49.862;9.908;2023-02-07T11:18:23;23.25;;;11.05;;
64875;SDS011;51369;49.862;9.908;2023-02-07T11:20:57;19.13;;;10.55;;
64875;SDS011;51369;49.862;9.908;2023-02-07T11:23:23;22.38;;;11.48;;
64875;SDS011;51369;49.862;9.908;2023-02-07T11:25:50;22.05;;;9.73;;
64875;SDS011;51369;49.862;9.908;2023-02-07T11:31:04;21.48;;;10.73;;
64875;SDS011;51369;49.862;9.908;2023-02-07T11:33:32;17.45;;;10.60;;
64875;SDS011;51369;49.862;9.908;2023-02-07T11:36:21;20.17;;;9.15;;
64875;SDS011;51369;49.862;9.908;2023-02-07T11:38:55;18.10;;;9.70;;
64875;SDS011;51369;49.862;9.908;2023-02-07T11:41:24;17.70;;;9.37;;
64875;SDS011;51369;49.862;9.908;2023-02-07T11:44:03;20.67;;;10.57;;
64875;SDS011;51369;49.862;9.908;2023-02-07T11:46:42;21.77;;;10.20;;
64875;SDS011;51369;49.862;9.908;2023-02-07T11:49:46;36.05;;;10.02;;
64875;SDS011;51369;49.862;9.908;2023-02-07T11:52:12;15.35;;;8.13;;
64875;SDS011;51369;49.862;9.908;2023-02-07T11:54:38;16.83;;;8.43;;
64875;SDS011;51369;49.862;9.908;2023-02-07T11:57:09;17.25;;;9.10;;
64875;SDS011;51369;49.862;9.908;2023-02-07T11:59:48;12.40;;;7.70;;
64875;SDS011;51369;49.862;9.908;2023-02-07T12:02:24;14.88;;;8.40;;
64875;SDS011;51369;49.862;9.908;2023-02-07T12:04:52;13.77;;;8.18;;
64875;SDS011;51369;49.862;9.908;2023-02-07T12:07:25;26.73;;;9.15;;
64875;SDS011;51369;49.862;9.908;2023-02-07T12:09:58;23.05;;;8.85;;
64875;SDS011;51369;49.862;9.908;2023-02-07T12:12:38;15.63;;;8.95;;
64875;SDS011;51369;49.862;9.908;2023-02-07T12:15:11;20.48;;;8.38;;
64875;SDS011;51369;49.862;9.908;2023-02-07T12:17:46;17.75;;;8.93;;
64875;SDS011;51369;49.862;9.908;2023-02-07T12:20:25;14.63;;;8.45;;
64875;SDS011;51369;49.862;9.908;2023-02-07T12:25:46;17.80;;;9.27;;
64875;SDS011;51369;49.862;9.908;2023-02-07T12:28:18;15.48;;;9.45;;
64875;SDS011;51369;49.862;9.908;2023-02-07T12:30:51;18.90;;;9.15;;
64875;SDS011;51369;49.862;9.908;2023-02-07T12:33:35;13.57;;;7.93;;
64875;SDS011;51369;49.862;9.908;2023-02-07T12:36:18;14.60;;;9.02;;
64875;SDS011;51369;49.862;9.908;2023-02-07T12:39:23;14.63;;;8.63;;
64875;SDS011;51369;49.862;9.908;2023-02-07T12:41:49;15.23;;;8.85;;
64875;SDS011;51369;49.862;9.908;2023-02-07T12:47:08;38.50;;;10.48;;
64875;SDS011;51369;49.862;9.908;2023-02-07T12:52:57;13.43;;;8.23;;
64875;SDS011;51369;49.862;9.908;2023-02-07T12:58:29;13.00;;;7.90;;
64875;SDS011;51369;49.862;9.908;2023-02-07T13:01:22;22.50;;;8.32;;
64875;SDS011;51369;49.862;9.908;2023-02-07T13:09:23;16.85;;;8.90;;
64875;SDS011;51369;49.862;9.908;2023-02-07T13:19:49;15.80;;;8.60;;
64875;SDS011;51369;49.862;9.908;2023-02-07T13:22:23;19.70;;;8.23;;
64875;SDS011;51369;49.862;9.908;2023-02-07T13:24:56;16.40;;;8.57;;
64875;SDS011;51369;49.862;9.908;2023-02-07T13:27:23;43.85;;;10.20;;
64875;SDS011;51369;49.862;9.908;2023-02-07T13:29:51;17.85;;;9.20;;
64875;SDS011;51369;49.862;9.908;2023-02-07T13:32:19;15.43;;;8.82;;
64875;SDS011;51369;49.862;9.908;2023-02-07T13:37:24;14.50;;;8.90;;
64875;SDS011;51369;49.862;9.908;2023-02-07T13:40:05;21.33;;;7.88;;
64875;SDS011;51369;49.862;9.908;2023-02-07T13:42:47;18.58;;;8.82;;
64875;SDS011;51369;49.862;9.908;2023-02-07T13:48:14;20.38;;;9.38;;
64875;SDS011;51369;49.862;9.908;2023-02-07T13:53:35;16.77;;;8.88;;
64875;SDS011;51369;49.862;9.908;2023-02-07T13:56:08;18.83;;;8.48;;
64875;SDS011;51369;49.862;9.908;2023-02-07T13:58:55;18.17;;;8.20;;
64875;SDS011;51369;49.862;9.908;2023-02-07T14:01:46;14.70;;;8.13;;
64875;SDS011;51369;49.862;9.908;2023-02-07T14:04:15;23.15;;;8.65;;
64875;SDS011;51369;49.862;9.908;2023-02-07T14:09:21;18.67;;;9.02;;
64875;SDS011;51369;49.862;9.908;2023-02-07T14:11:57;11.82;;;7.20;;
64875;SDS011;51369;49.862;9.908;2023-02-07T14:14:27;15.40;;;7.88;;
64875;SDS011;51369;49.862;9.908;2023-02-07T14:16:59;13.57;;;7.60;;
64875;SDS011;51369;49.862;9.908;2023-02-07T14:24:49;11.73;;;7.25;;
64875;SDS011;51369;49.862;9.908;2023-02-07T14:27:24;18.13;;;7.50;;
64875;SDS011;51369;49.862;9.908;2023-02-07T14:29:54;14.48;;;7.45;;
64875;SDS011;51369;49.862;9.908;2023-02-07T14:40:26;15.05;;;7.65;;
64875;SDS011;51369;49.862;9.908;2023-02-07T14:53:57;12.80;;;7.05;;
64875;SDS011;51369;49.862;9.908;2023-02-07T14:56:27;24.65;;;6.90;;
64875;SDS011;51369;49.862;9.908;2023-02-07T14:59:04;10.77;;;6.35;;
64875;SDS011;51369;49.862;9.908;2023-02-07T15:01:31;20.40;;;6.70;;
64875;SDS011;51369;49.862;9.908;2023-02-07T15:04:04;16.98;;;7.80;;
64875;SDS011;51369;49.862;9.908;2023-02-07T15:06:41;19.10;;;7.18;;
64875;SDS011;51369;49.862;9.908;2023-02-07T15:09:25;24.27;;;7.45;;
64875;SDS011;51369;49.862;9.908;2023-02-07T15:11:51;32.50;;;7.63;;
64875;SDS011;51369;49.862;9.908;2023-02-07T15:14:31;26.38;;;7.80;;
64875;SDS011;51369;49.862;9.908;2023-02-07T15:16:59;11.10;;;6.40;;
64875;SDS011;51369;49.862;9.908;2023-02-07T15:19:29;10.95;;;6.13;;
64875;SDS011;51369;49.862;9.908;2023-02-07T15:21:58;17.33;;;7.40;;
64875;SDS011;51369;49.862;9.908;2023-02-07T15:24:29;42.58;;;8.45;;
64875;SDS011;51369;49.862;9.908;2023-02-07T15:26:59;14.55;;;8.15;;
64875;SDS011;51369;49.862;9.908;2023-02-07T15:29:28;17.88;;;7.93;;
64875;SDS011;51369;49.862;9.908;2023-02-07T15:31:56;13.38;;;6.50;;
64875;SDS011;51369;49.862;9.908;2023-02-07T15:34:23;11.52;;;6.68;;
64875;SDS011;51369;49.862;9.908;2023-02-07T15:36:56;17.17;;;7.25;;
64875;SDS011;51369;49.862;9.908;2023-02-07T15:39:23;18.65;;;7.63;;
64875;SDS011;51369;49.862;9.908;2023-02-07T15:41:51;11.65;;;6.80;;
64875;SDS011;51369;49.862;9.908;2023-02-07T15:44:25;13.30;;;6.57;;
64875;SDS011;51369;49.862;9.908;2023-02-07T15:46:56;12.18;;;6.85;;
64875;SDS011;51369;49.862;9.908;2023-02-07T15:51:55;14.27;;;6.68;;
64875;SDS011;51369;49.862;9.908;2023-02-07T15:54:26;15.18;;;6.53;;
64875;SDS011;51369;49.862;9.908;2023-02-07T15:56:56;19.63;;;6.80;;
64875;SDS011;51369;49.862;9.908;2023-02-07T15:59:23;14.68;;;7.57;;
64875;SDS011;51369;49.862;9.908;2023-02-07T16:01:56;16.95;;;7.28;;
64875;SDS011;51369;49.862;9.908;2023-02-07T16:04:24;20.05;;;8.30;;
64875;SDS011;51369;49.862;9.908;2023-02-07T16:09:36;12.07;;;6.78;;
64875;SDS011;51369;49.862;9.908;2023-02-07T16:13:08;125.68;;;13.40;;
64875;SDS011;51369;49.862;9.908;2023-02-07T16:15:22;18.08;;;7.05;;
64875;SDS011;51369;49.862;9.908;2023-02-07T16:17:51;14.75;;;7.25;;